Time;durP1;ratioP1;P1;durP2;ratioP2;P2;SDS_P1;SDS_P2;PMS_P1;PMS_P2;Temp;Humidity;BMP_temperature;BMP_pressure;BME280_temperature;BME280_humidity;BME280_pressure;Samples;Min_cycle;Max_cycle;Signal;HPM_P1;HPM_P2
2023/04/07 00:00:05;;;;;;;13.53;6.43;;;7.80;99.90;;;;;;4989022;28;20643;-62
2023/04/07 00:02:38;;;;;;;9.30;5.50;;;7.70;99.90;;;;;;4991471;28;20228;-62
2023/04/07 00:05:06;;;;;;;16.80;7.47;;;7.70;99.90;;;;;;4990374;28;20218;-61
2023/04/07 00:07:34;;;;;;;11.17;6.07;;;7.70;99.90;;;;;;4988198;28;20297;-62
2023/04/07 00:10:01;;;;;;;12.77;6.17;;;7.70;99.90;;;;;;4991285;28;20192;-61
2023/04/07 00:12:28;;;;;;;15.63;7.50;;;7.70;99.90;;;;;;4990533;28;20203;-61
2023/04/07 00:14:55;;;;;;;12.70;6.57;;;7.70;99.90;;;;;;5003362;28;20674;-61
2023/04/07 00:17:22;;;;;;;18.00;7.77;;;7.80;99.90;;;;;;4991622;28;20262;-62
2023/04/07 00:19:49;;;;;;;16.00;7.47;;;7.80;99.90;;;;;;4988856;28;20203;-61
2023/04/07 00:22:16;;;;;;;14.83;7.33;;;7.80;99.90;;;;;;4987977;28;20258;-61
2023/04/07 00:24:45;;;;;;;17.30;7.20;;;7.80;99.90;;;;;;4990186;28;20204;-61
2023/04/07 00:27:12;;;;;;;21.97;7.53;;;7.80;99.90;;;;;;4990711;28;20216;-62
2023/04/07 00:29:39;;;;;;;12.43;6.53;;;7.80;99.90;;;;;;4988458;28;20350;-61
2023/04/07 00:32:06;;;;;;;9.80;6.10;;;7.80;99.90;;;;;;4991388;28;20200;-62
2023/04/07 00:34:33;;;;;;;7.80;4.70;;;7.80;99.90;;;;;;4988622;28;20262;-62
2023/04/07 00:37:00;;;;;;;18.60;7.23;;;7.80;99.90;;;;;;4988124;28;20666;-62
2023/04/07 00:39:27;;;;;;;18.07;7.10;;;7.80;99.90;;;;;;4990370;28;20737;-62
2023/04/07 00:41:56;;;;;;;14.23;6.57;;;7.90;99.90;;;;;;4990659;28;20207;-62
2023/04/07 00:44:23;;;;;;;13.80;6.33;;;7.80;99.90;;;;;;4987876;28;20197;-62
2023/04/07 00:46:50;;;;;;;13.33;6.87;;;7.90;99.90;;;;;;4990419;28;20218;-61
2023/04/07 00:49:18;;;;;;;13.43;7.10;;;7.80;99.90;;;;;;4988389;28;20208;-62
2023/04/07 00:51:45;;;;;;;29.73;9.17;;;7.80;99.90;;;;;;4999769;28;20207;-62
2023/04/07 00:54:13;;;;;;;16.67;7.37;;;7.80;99.90;;;;;;5003395;28;20271;-62
2023/04/07 00:56:40;;;;;;;17.57;8.47;;;7.80;99.90;;;;;;5004045;28;20655;-62
2023/04/07 00:59:08;;;;;;;21.03;9.00;;;7.80;99.90;;;;;;4987490;28;20563;-62
2023/04/07 01:01:43;;;;;;;28.50;9.87;;;7.80;99.90;;;;;;4990849;28;20623;-62
2023/04/07 01:04:18;;;;;;;19.60;8.90;;;7.80;99.90;;;;;;4987794;28;20231;-62
2023/04/07 01:06:50;;;;;;;21.97;8.80;;;7.80;99.90;;;;;;4987927;28;20289;-62
2023/04/07 01:09:27;;;;;;;17.17;6.57;;;7.80;99.90;;;;;;5005138;28;20273;-62
2023/04/07 01:12:01;;;;;;;18.50;7.60;;;7.80;99.90;;;;;;4986986;28;20559;-62
2023/04/07 01:14:35;;;;;;;23.83;9.00;;;7.70;99.90;;;;;;4988641;28;20202;-62
2023/04/07 01:17:16;;;;;;;14.93;6.97;;;7.80;99.90;;;;;;5004699;28;20702;-62
2023/04/07 01:19:53;;;;;;;20.63;7.67;;;7.80;99.90;;;;;;4984917;28;20203;-62
2023/04/07 01:22:26;;;;;;;20.00;8.27;;;7.80;99.90;;;;;;4989948;28;20611;-62
2023/04/07 01:25:22;;;;;;;23.47;8.37;;;7.80;99.90;;;;;;5005579;28;20204;-62
2023/04/07 01:28:00;;;;;;;24.43;8.50;;;7.80;99.90;;;;;;4982982;28;20576;-62
2023/04/07 01:30:31;;;;;;;21.40;9.40;;;7.80;99.90;;;;;;5003606;28;20741;-62
2023/04/07 01:33:00;;;;;;;17.77;7.50;;;7.80;99.90;;;;;;4989439;28;20196;-63
2023/04/07 01:35:30;;;;;;;12.83;6.47;;;7.80;99.90;;;;;;5003466;28;20193;-62
2023/04/07 01:37:59;;;;;;;9.67;5.50;;;7.80;99.90;;;;;;4989821;28;20314;-62
2023/04/07 01:40:26;;;;;;;21.53;7.67;;;7.70;99.90;;;;;;4989043;28;20200;-62
2023/04/07 01:42:56;;;;;;;16.27;7.40;;;7.80;99.90;;;;;;5002628;28;20539;-62
2023/04/07 01:45:24;;;;;;;13.73;7.07;;;7.80;99.90;;;;;;4989734;28;20253;-62
2023/04/07 01:47:54;;;;;;;16.03;6.67;;;7.80;99.90;;;;;;4987061;28;20290;-63
2023/04/07 01:50:22;;;;;;;19.43;7.80;;;7.80;99.90;;;;;;4989996;28;20211;-62
2023/04/07 01:52:49;;;;;;;17.47;7.37;;;7.80;99.90;;;;;;4988776;28;20660;-61
2023/04/07 01:55:16;;;;;;;15.77;7.30;;;7.80;99.90;;;;;;4986859;28;20204;-62
2023/04/07 01:58:05;;;;;;;21.37;7.53;;;7.80;99.90;;;;;;4989388;28;20645;-62
2023/04/07 02:00:33;;;;;;;15.97;6.50;;;7.80;99.90;;;;;;4983018;28;20226;-62
2023/04/07 02:03:10;;;;;;;16.93;6.50;;;7.80;99.90;;;;;;5013984;28;20362;-62
2023/04/07 02:05:38;;;;;;;14.80;6.97;;;7.80;99.90;;;;;;5000026;28;20223;-62
2023/04/07 02:08:10;;;;;;;9.40;5.93;;;7.90;99.90;;;;;;5004054;28;20980;-62
2023/04/07 02:10:39;;;;;;;11.10;5.70;;;7.90;99.90;;;;;;4984610;28;20294;-62
2023/04/07 02:13:12;;;;;;;13.93;6.57;;;7.90;99.90;;;;;;5005299;28;20290;-62
2023/04/07 02:15:43;;;;;;;15.63;7.53;;;7.90;99.90;;;;;;5003989;28;20258;-62
2023/04/07 02:18:17;;;;;;;22.87;6.87;;;7.90;99.90;;;;;;4987692;28;20246;-62
2023/04/07 02:20:46;;;;;;;11.47;5.97;;;7.90;99.90;;;;;;4989383;28;20202;-62
2023/04/07 02:23:16;;;;;;;13.30;5.57;;;7.90;99.90;;;;;;4986304;28;20203;-62
2023/04/07 02:25:43;;;;;;;10.63;6.37;;;7.90;99.90;;;;;;5004274;28;20665;-63
2023/04/07 02:28:10;;;;;;;12.73;6.23;;;7.90;99.90;;;;;;4989679;28;20700;-62
2023/04/07 02:30:40;;;;;;;10.93;5.87;;;7.90;99.90;;;;;;4990067;28;20207;-62
2023/04/07 02:33:07;;;;;;;12.63;6.33;;;7.90;99.90;;;;;;4992473;28;20231;-63
2023/04/07 02:35:35;;;;;;;10.23;4.83;;;7.90;99.90;;;;;;4993226;28;20247;-60
2023/04/07 02:38:02;;;;;;;8.13;4.77;;;7.90;99.90;;;;;;5004998;28;20770;-62
2023/04/07 02:40:29;;;;;;;10.33;6.20;;;7.90;99.90;;;;;;4991677;28;20208;-62
2023/04/07 02:42:57;;;;;;;12.93;6.33;;;7.90;99.90;;;;;;4991113;28;20200;-61
2023/04/07 02:45:24;;;;;;;8.40;5.30;;;7.90;99.90;;;;;;4989817;28;20196;-61
2023/04/07 02:47:51;;;;;;;16.03;6.73;;;7.90;99.90;;;;;;4991771;28;20667;-63
2023/04/07 02:50:18;;;;;;;10.30;5.73;;;7.90;99.90;;;;;;4992835;28;20274;-62
2023/04/07 02:52:47;;;;;;;14.37;6.90;;;7.90;99.90;;;;;;4989266;28;20994;-62
2023/04/07 02:55:17;;;;;;;14.70;7.37;;;7.90;99.90;;;;;;5007815;28;20204;-62
2023/04/07 02:57:44;;;;;;;13.77;6.07;;;7.90;99.90;;;;;;5005858;28;20214;-63
2023/04/07 03:00:21;;;;;;;13.57;7.07;;;7.80;99.90;;;;;;4989036;28;20202;-62
2023/04/07 03:03:00;;;;;;;10.70;6.37;;;7.90;99.90;;;;;;4987504;28;20334;-62
2023/04/07 03:05:30;;;;;;;10.37;5.90;;;7.80;99.90;;;;;;5006822;28;20255;-61
2023/04/07 03:07:59;;;;;;;19.23;8.00;;;7.90;99.90;;;;;;4988640;28;20199;-62
2023/04/07 03:10:26;;;;;;;11.90;6.07;;;7.90;99.90;;;;;;4992400;28;20199;-62
2023/04/07 03:12:53;;;;;;;9.40;5.30;;;7.90;99.90;;;;;;4992151;28;20222;-62
2023/04/07 03:15:25;;;;;;;15.60;7.00;;;7.80;99.90;;;;;;4989430;28;20295;-61
2023/04/07 03:17:52;;;;;;;12.87;6.57;;;7.80;99.90;;;;;;4990078;28;20394;-61
2023/04/07 03:20:20;;;;;;;13.27;6.33;;;7.80;99.90;;;;;;5007193;28;20692;-62
2023/04/07 03:22:48;;;;;;;19.53;7.40;;;7.80;99.90;;;;;;4987268;28;20203;-62
2023/04/07 03:25:23;;;;;;;18.73;7.77;;;7.80;99.90;;;;;;5007578;28;20302;-62
2023/04/07 03:27:52;;;;;;;20.43;8.50;;;7.80;99.90;;;;;;4989238;28;20235;-62
2023/04/07 03:30:19;;;;;;;15.37;7.60;;;7.80;99.90;;;;;;5005710;28;20310;-62
2023/04/07 03:32:47;;;;;;;11.43;6.33;;;7.80;99.90;;;;;;4992696;28;20290;-63
2023/04/07 03:35:14;;;;;;;11.93;6.53;;;7.80;99.90;;;;;;4989462;28;20576;-62
2023/04/07 03:37:41;;;;;;;13.27;6.97;;;7.80;99.90;;;;;;4987433;28;20222;-62
2023/04/07 03:40:14;;;;;;;17.13;7.57;;;7.90;99.90;;;;;;5007178;28;20208;-62
2023/04/07 03:42:43;;;;;;;11.83;6.47;;;7.90;99.90;;;;;;4986305;28;20258;-61
2023/04/07 03:45:13;;;;;;;10.50;5.80;;;7.90;99.90;;;;;;4988656;28;20314;-61
2023/04/07 03:47:45;;;;;;;10.97;6.13;;;7.90;99.90;;;;;;4989938;28;20227;-61
2023/04/07 03:50:13;;;;;;;13.53;7.50;;;7.90;99.90;;;;;;4984555;28;20508;-62
2023/04/07 03:52:58;;;;;;;15.70;8.03;;;8.00;99.90;;;;;;5005704;28;20672;-61
2023/04/07 03:55:28;;;;;;;14.23;7.50;;;8.00;99.90;;;;;;4991983;28;20295;-61
2023/04/07 03:58:02;;;;;;;16.27;7.37;;;7.90;99.90;;;;;;5001049;28;20549;-61
2023/04/07 04:00:33;;;;;;;13.77;7.37;;;7.90;99.90;;;;;;4990128;28;20254;-61
2023/04/07 04:03:13;;;;;;;11.67;6.70;;;7.90;99.90;;;;;;4989421;28;20234;-61
2023/04/07 04:06:16;;;;;;;17.93;8.07;;;7.90;99.90;;;;;;4970454;28;20278;-61
2023/04/07 04:08:44;;;;;;;14.20;7.70;;;7.90;99.90;;;;;;4987289;28;20208;-62
2023/04/07 04:11:11;;;;;;;17.73;8.20;;;7.90;99.90;;;;;;4988163;28;20253;-62
2023/04/07 04:13:47;;;;;;;19.03;7.90;;;7.90;99.90;;;;;;4991720;28;20195;-62
2023/04/07 04:16:14;;;;;;;9.93;6.40;;;7.90;99.90;;;;;;4991900;28;20207;-60
2023/04/07 04:18:42;;;;;;;14.20;7.67;;;7.90;99.90;;;;;;4986391;28;20227;-60
2023/04/07 04:21:11;;;;;;;14.27;8.00;;;7.90;99.90;;;;;;4989685;28;20307;-62
2023/04/07 04:23:42;;;;;;;12.90;7.23;;;7.90;99.90;;;;;;4988508;28;20679;-61
2023/04/07 04:26:09;;;;;;;17.27;8.40;;;7.90;99.90;;;;;;4986213;28;20207;-62
2023/04/07 04:28:41;;;;;;;17.60;8.90;;;7.80;99.90;;;;;;4989205;28;20234;-62
2023/04/07 04:31:10;;;;;;;17.03;8.37;;;7.90;99.90;;;;;;4990328;28;20528;-63
2023/04/07 04:33:42;;;;;;;13.90;7.47;;;7.90;99.90;;;;;;5003422;28;20199;-62
2023/04/07 04:36:09;;;;;;;16.13;7.63;;;7.90;99.90;;;;;;4989300;28;20544;-63
2023/04/07 04:38:37;;;;;;;15.83;7.70;;;7.90;99.90;;;;;;4988912;28;20192;-62
2023/04/07 04:41:12;;;;;;;14.10;7.80;;;7.90;99.90;;;;;;4986805;28;20206;-61
2023/04/07 04:43:39;;;;;;;23.47;8.53;;;7.90;99.90;;;;;;5006365;28;20207;-62
2023/04/07 04:46:07;;;;;;;20.87;10.13;;;7.90;99.90;;;;;;4989658;28;20290;-62
2023/04/07 04:48:41;;;;;;;25.20;11.33;;;7.90;99.90;;;;;;5001404;28;20563;-61
2023/04/07 04:51:08;;;;;;;23.43;11.37;;;7.90;99.90;;;;;;4989049;28;20648;-61
2023/04/07 04:53:37;;;;;;;29.47;12.43;;;7.90;99.90;;;;;;5001780;28;20223;-62
2023/04/07 04:56:07;;;;;;;27.40;12.63;;;7.90;99.90;;;;;;4984098;28;20294;-62
2023/04/07 04:58:44;;;;;;;22.40;11.83;;;7.90;99.90;;;;;;4989506;28;20207;-62
2023/04/07 05:01:13;;;;;;;21.37;10.83;;;7.90;99.90;;;;;;5004591;28;20210;-62
2023/04/07 05:03:48;;;;;;;27.00;13.53;;;7.80;99.90;;;;;;5002902;28;20228;-61
2023/04/07 05:06:21;;;;;;;17.43;9.47;;;8.70;99.90;;;;;;5005268;28;20206;-62
2023/04/07 05:08:50;;;;;;;27.83;10.87;;;7.80;99.90;;;;;;4986294;28;20254;-62
2023/04/07 05:11:23;;;;;;;16.37;8.60;;;7.80;99.90;;;;;;4987134;28;20207;-62
2023/04/07 05:13:53;;;;;;;23.17;9.17;;;7.80;99.90;;;;;;5005222;28;20212;-63
2023/04/07 05:16:20;;;;;;;19.10;8.70;;;7.80;99.90;;;;;;4987935;28;20671;-62
2023/04/07 05:18:49;;;;;;;16.23;8.23;;;7.90;99.90;;;;;;5004048;28;20202;-61
2023/04/07 05:21:19;;;;;;;19.43;8.67;;;7.90;99.90;;;;;;4988079;28;20200;-61
2023/04/07 05:23:48;;;;;;;18.00;8.03;;;7.90;99.90;;;;;;4984406;28;20694;-62
2023/04/07 05:26:16;;;;;;;23.83;9.10;;;7.90;99.90;;;;;;4988506;28;20238;-62
2023/04/07 05:28:46;;;;;;;24.37;9.77;;;7.90;99.90;;;;;;5005404;28;20227;-63
2023/04/07 05:31:21;;;;;;;25.17;10.83;;;7.90;99.90;;;;;;4986058;28;20208;-61
2023/04/07 05:33:53;;;;;;;24.37;10.43;;;7.90;99.90;;;;;;5005397;28;20250;-62
2023/04/07 05:36:27;;;;;;;24.83;10.40;;;7.90;99.90;;;;;;4988850;28;20310;-62
2023/04/07 05:38:57;;;;;;;21.23;9.70;;;7.90;99.90;;;;;;4984656;28;20655;-62
2023/04/07 05:41:24;;;;;;;18.93;8.47;;;7.90;99.90;;;;;;4989920;28;20204;-62
2023/04/07 05:43:51;;;;;;;21.13;9.70;;;7.90;99.90;;;;;;5002553;28;20207;-62
2023/04/07 05:46:18;;;;;;;16.73;7.40;;;7.90;99.90;;;;;;4986268;28;20254;-62
2023/04/07 05:48:54;;;;;;;20.27;8.67;;;7.90;99.90;;;;;;4983818;28;20227;-61
2023/04/07 05:51:22;;;;;;;20.63;9.20;;;7.90;99.90;;;;;;5005522;28;20234;-62
2023/04/07 05:53:51;;;;;;;17.90;8.33;;;7.90;99.90;;;;;;5000257;28;20219;-61
2023/04/07 05:56:20;;;;;;;13.60;7.23;;;8.00;99.90;;;;;;4994454;28;20200;-62
2023/04/07 05:58:49;;;;;;;13.03;6.20;;;8.00;99.90;;;;;;4986010;28;20223;-61
2023/04/07 06:01:17;;;;;;;10.83;5.80;;;8.00;99.90;;;;;;5008439;28;20200;-62
2023/04/07 06:03:44;;;;;;;18.90;7.70;;;8.00;99.90;;;;;;5006707;28;20598;-61
2023/04/07 06:06:17;;;;;;;13.17;7.43;;;8.00;99.90;;;;;;4990519;28;20662;-62
2023/04/07 06:08:46;;;;;;;17.40;8.63;;;8.10;99.90;;;;;;4990992;28;20314;-62
2023/04/07 06:11:13;;;;;;;18.00;7.60;;;8.10;99.90;;;;;;4991984;28;20574;-62
2023/04/07 06:13:40;;;;;;;17.00;7.43;;;8.10;99.90;;;;;;4991552;28;20195;-61
2023/04/07 06:16:07;;;;;;;14.37;6.93;;;8.00;99.90;;;;;;5007643;28;20211;-62
2023/04/07 06:18:35;;;;;;;15.40;7.27;;;8.00;99.90;;;;;;5007926;28;20258;-62
2023/04/07 06:21:02;;;;;;;14.00;6.27;;;8.00;99.90;;;;;;4989734;28;20200;-61
2023/04/07 06:23:31;;;;;;;11.43;5.83;;;8.00;99.90;;;;;;4991146;28;20231;-62
2023/04/07 06:25:58;;;;;;;16.43;6.20;;;8.00;99.90;;;;;;4992718;28;20306;-62
2023/04/07 06:28:25;;;;;;;9.50;5.13;;;8.00;99.90;;;;;;4990610;28;20761;-62
2023/04/07 06:30:57;;;;;;;7.97;4.27;;;8.00;99.90;;;;;;4993123;28;20210;-62
2023/04/07 06:33:24;;;;;;;9.20;4.77;;;8.10;99.90;;;;;;5008237;28;20250;-62
2023/04/07 06:35:51;;;;;;;10.03;5.47;;;8.10;99.90;;;;;;4982401;28;20205;-62
2023/04/07 06:38:19;;;;;;;11.33;6.10;;;8.10;99.90;;;;;;4992568;28;20239;-62
2023/04/07 06:40:47;;;;;;;10.27;5.43;;;8.10;99.90;;;;;;4991310;28;20196;-62
2023/04/07 06:43:14;;;;;;;11.20;5.33;;;8.10;99.90;;;;;;4989324;28;20196;-63
2023/04/07 06:45:51;;;;;;;9.60;5.40;;;8.10;99.90;;;;;;4983139;28;20250;-62
2023/04/07 06:48:18;;;;;;;9.00;5.30;;;8.10;99.90;;;;;;4994936;28;20217;-63
2023/04/07 06:50:47;;;;;;;13.60;6.70;;;8.10;99.90;;;;;;5000810;28;20666;-62
2023/04/07 06:53:15;;;;;;;10.97;6.30;;;8.20;99.90;;;;;;5005393;28;20723;-62
2023/04/07 06:55:42;;;;;;;9.53;5.83;;;8.20;99.90;;;;;;4985129;28;20204;-62
2023/04/07 06:58:13;;;;;;;7.60;5.27;;;8.20;99.90;;;;;;4988773;28;20200;-61
2023/04/07 07:00:40;;;;;;;7.47;4.90;;;8.20;99.90;;;;;;4989389;28;20235;-62
2023/04/07 07:03:08;;;;;;;18.67;8.47;;;8.30;99.90;;;;;;4991479;28;20232;-62
2023/04/07 07:05:35;;;;;;;10.90;6.60;;;8.20;99.90;;;;;;4986804;28;20673;-62
2023/04/07 07:08:04;;;;;;;14.10;7.40;;;8.30;99.90;;;;;;4990417;28;20645;-62
2023/04/07 07:10:31;;;;;;;7.73;5.23;;;8.30;99.90;;;;;;4987550;28;20209;-62
2023/04/07 07:12:58;;;;;;;8.00;5.33;;;8.30;99.90;;;;;;4989047;28;20278;-61
2023/04/07 07:15:27;;;;;;;6.10;4.13;;;8.30;99.90;;;;;;5004178;28;20528;-62
2023/04/07 07:17:54;;;;;;;6.57;4.50;;;8.30;99.90;;;;;;4983225;28;20462;-63
2023/04/07 07:20:22;;;;;;;14.10;6.87;;;8.40;99.90;;;;;;4986104;28;20208;-62
2023/04/07 07:22:51;;;;;;;13.07;7.60;;;8.40;99.90;;;;;;4989272;28;20217;-62
2023/04/07 07:25:18;;;;;;;13.17;6.90;;;8.40;99.90;;;;;;4981774;28;20189;-62
2023/04/07 07:27:45;;;;;;;18.37;7.40;;;8.40;99.90;;;;;;4988422;28;20575;-62
2023/04/07 07:30:12;;;;;;;26.63;8.27;;;8.40;99.90;;;;;;4990628;28;20212;-62
2023/04/07 07:32:41;;;;;;;14.33;7.40;;;8.30;99.90;;;;;;4986010;28;20204;-62
2023/04/07 07:35:08;;;;;;;13.47;7.13;;;8.30;99.90;;;;;;4990216;28;20283;-62
2023/04/07 07:37:36;;;;;;;13.97;7.43;;;8.30;99.90;;;;;;4989612;28;20290;-61
2023/04/07 07:40:03;;;;;;;21.07;8.70;;;8.30;99.90;;;;;;4985782;28;20200;-61
2023/04/07 07:42:32;;;;;;;21.60;9.97;;;8.30;99.90;;;;;;4988174;28;20609;-61
2023/04/07 07:44:59;;;;;;;15.97;8.23;;;8.30;99.90;;;;;;4989871;28;20567;-62
2023/04/07 07:47:30;;;;;;;17.53;8.70;;;8.30;99.90;;;;;;4985247;28;20252;-62
2023/04/07 07:49:58;;;;;;;15.33;8.27;;;8.30;99.90;;;;;;4986998;28;20212;-63
2023/04/07 07:52:25;;;;;;;16.73;8.47;;;8.30;99.90;;;;;;5003808;28;20197;-62
2023/04/07 07:54:52;;;;;;;25.00;9.37;;;8.30;99.90;;;;;;4984257;28;20219;-62
2023/04/07 07:57:20;;;;;;;18.40;8.67;;;8.30;99.90;;;;;;4988654;28;20266;-63
2023/04/07 07:59:47;;;;;;;16.77;7.47;;;8.30;99.90;;;;;;4989638;28;20283;-62
2023/04/07 08:02:14;;;;;;;18.20;8.13;;;8.30;99.90;;;;;;4987476;28;20270;-63
2023/04/07 08:04:43;;;;;;;20.37;9.17;;;8.30;99.90;;;;;;4988672;28;20214;-62
2023/04/07 08:07:12;;;;;;;18.10;8.40;;;8.40;99.90;;;;;;4986203;28;20208;-62
2023/04/07 08:09:39;;;;;;;20.07;8.40;;;8.40;99.90;;;;;;4985232;28;20411;-62
2023/04/07 08:12:06;;;;;;;18.90;8.83;;;8.30;99.90;;;;;;4989263;28;20667;-63
2023/04/07 08:14:33;;;;;;;27.00;9.73;;;8.40;99.90;;;;;;4987678;28;20228;-62
2023/04/07 08:17:00;;;;;;;22.47;8.93;;;8.30;99.90;;;;;;4989244;28;20703;-63
2023/04/07 08:19:28;;;;;;;19.93;8.57;;;8.40;99.90;;;;;;4989193;28;20223;-62
2023/04/07 08:21:55;;;;;;;20.30;8.93;;;8.40;99.90;;;;;;4999762;28;20319;-63
2023/04/07 08:24:26;;;;;;;20.10;8.53;;;8.40;99.90;;;;;;4988487;28;20200;-62
2023/04/07 08:26:53;;;;;;;20.80;9.10;;;8.40;99.90;;;;;;5002985;28;20432;-61
2023/04/07 08:29:20;;;;;;;18.80;8.70;;;8.40;99.90;;;;;;4986040;28;20211;-61
2023/04/07 08:31:47;;;;;;;16.67;7.70;;;8.40;99.90;;;;;;5003447;28;20226;-62
2023/04/07 08:34:17;;;;;;;15.33;7.90;;;8.40;99.90;;;;;;4989012;28;20223;-62
2023/04/07 08:36:45;;;;;;;22.57;9.23;;;8.50;99.90;;;;;;5000687;28;20223;-62
2023/04/07 08:39:12;;;;;;;21.67;8.47;;;8.50;99.90;;;;;;4987824;28;20568;-63
2023/04/07 08:41:43;;;;;;;22.90;10.53;;;8.50;99.90;;;;;;4988999;28;20238;-61
2023/04/07 08:44:12;;;;;;;17.80;9.03;;;8.50;99.90;;;;;;4984221;28;20204;-62
2023/04/07 08:46:39;;;;;;;23.23;9.80;;;8.50;99.90;;;;;;4989080;28;20559;-62
2023/04/07 08:49:10;;;;;;;19.03;9.33;;;8.50;99.90;;;;;;4986767;28;20579;-62
2023/04/07 08:51:39;;;;;;;22.40;10.00;;;8.50;99.90;;;;;;4984844;28;20192;-62
2023/04/07 08:54:10;;;;;;;27.10;10.37;;;8.60;99.90;;;;;;4987775;28;20873;-62
2023/04/07 08:56:39;;;;;;;20.90;9.90;;;8.60;99.90;;;;;;4988887;28;20278;-67
2023/04/07 08:59:09;;;;;;;23.13;10.27;;;8.50;99.90;;;;;;4986318;28;20282;-62
2023/04/07 09:01:37;;;;;;;21.10;9.43;;;8.50;99.90;;;;;;4989359;28;20222;-62
2023/04/07 09:04:06;;;;;;;21.83;9.40;;;8.50;99.90;;;;;;4985726;28;20240;-62
2023/04/07 09:06:33;;;;;;;26.77;10.97;;;8.50;99.90;;;;;;4987894;28;20231;-62
2023/04/07 09:09:01;;;;;;;19.87;9.47;;;8.50;99.90;;;;;;4987923;28;20204;-61
2023/04/07 09:11:29;;;;;;;16.80;8.87;;;8.50;99.90;;;;;;4987440;28;20278;-62
2023/04/07 09:13:57;;;;;;;18.03;8.90;;;8.50;99.90;;;;;;4987456;28;20212;-62
2023/04/07 09:16:29;;;;;;;18.60;9.30;;;8.50;99.90;;;;;;4989511;28;20286;-62
2023/04/07 09:18:57;;;;;;;15.70;8.80;;;8.50;99.90;;;;;;4983404;28;20195;-62
2023/04/07 09:21:25;;;;;;;18.40;9.37;;;8.50;99.90;;;;;;4987896;28;20222;-62
2023/04/07 09:23:53;;;;;;;17.40;9.10;;;8.50;99.90;;;;;;4987921;28;20541;-62
2023/04/07 09:26:23;;;;;;;20.67;8.73;;;8.50;99.90;;;;;;4984899;28;20199;-62
2023/04/07 09:28:53;;;;;;;16.33;9.20;;;8.50;99.90;;;;;;4987796;28;20291;-62
2023/04/07 09:31:21;;;;;;;21.63;9.87;;;8.50;99.90;;;;;;5003572;28;20289;-62
2023/04/07 09:33:50;;;;;;;20.87;10.00;;;8.60;99.90;;;;;;4984824;28;20192;-62
2023/04/07 09:36:20;;;;;;;20.37;8.97;;;8.50;99.90;;;;;;4987550;28;20202;-62
2023/04/07 09:38:47;;;;;;;28.20;10.47;;;8.50;99.90;;;;;;4999043;28;20192;-62
2023/04/07 09:41:15;;;;;;;27.00;11.93;;;8.50;99.90;;;;;;4983410;28;20624;-62
2023/04/07 09:43:44;;;;;;;21.53;11.00;;;8.50;99.90;;;;;;4984474;28;20196;-62
2023/04/07 09:46:13;;;;;;;19.13;10.17;;;8.50;99.90;;;;;;4988425;28;20234;-62
2023/04/07 09:48:45;;;;;;;20.77;9.93;;;8.50;99.90;;;;;;4983025;28;20287;-62
2023/04/07 09:51:17;;;;;;;22.20;9.83;;;8.40;99.90;;;;;;4981361;28;20203;-62
2023/04/07 09:53:49;;;;;;;24.03;8.90;;;8.50;99.90;;;;;;4986590;28;20205;-62
2023/04/07 09:56:17;;;;;;;19.90;9.47;;;8.50;99.90;;;;;;4983471;28;20678;-62
2023/04/07 09:58:46;;;;;;;21.33;10.23;;;8.50;99.90;;;;;;4979303;28;20227;-62
2023/04/07 10:01:15;;;;;;;20.07;10.37;;;8.60;99.90;;;;;;4987393;28;20200;-62
2023/04/07 10:03:42;;;;;;;18.10;8.57;;;8.60;99.90;;;;;;4982108;28;20238;-62
2023/04/07 10:06:10;;;;;;;15.63;8.50;;;8.60;99.90;;;;;;4987072;28;20200;-60
2023/04/07 10:08:41;;;;;;;15.97;8.57;;;8.60;99.90;;;;;;4984538;28;20206;-61
2023/04/07 10:11:10;;;;;;;17.70;9.40;;;8.60;99.90;;;;;;4988977;28;20235;-62
2023/04/07 10:13:41;;;;;;;15.93;8.57;;;8.60;99.90;;;;;;4977827;28;20197;-62
2023/04/07 10:16:08;;;;;;;20.83;9.73;;;8.60;99.90;;;;;;4996749;28;20215;-61
2023/04/07 10:18:36;;;;;;;19.43;9.60;;;8.60;99.90;;;;;;4988342;28;20228;-61
2023/04/07 10:21:08;;;;;;;16.77;8.63;;;8.60;99.90;;;;;;4987471;28;20196;-62
2023/04/07 10:23:56;;;;;;;14.33;8.47;;;8.60;99.90;;;;;;4983336;28;20287;-62
2023/04/07 10:26:29;;;;;;;21.47;10.10;;;8.60;99.90;;;;;;4988581;28;20191;-62
2023/04/07 10:29:07;;;;;;;25.57;12.03;;;8.60;99.90;;;;;;4985955;28;20655;-61
2023/04/07 10:31:34;;;;;;;26.03;12.67;;;8.60;99.90;;;;;;4985883;28;20187;-61
2023/04/07 10:34:01;;;;;;;20.53;11.17;;;8.60;99.90;;;;;;4987638;28;20567;-62
2023/04/07 10:36:29;;;;;;;21.00;11.43;;;8.60;99.90;;;;;;4986240;28;20200;-62
2023/04/07 10:39:23;;;;;;;18.83;9.63;;;8.60;99.90;;;;;;4984845;28;20204;-62
2023/04/07 10:41:50;;;;;;;19.47;9.90;;;8.60;99.90;;;;;;4986414;28;20201;-61
2023/04/07 10:44:50;;;;;;;20.50;10.20;;;8.60;99.90;;;;;;4983857;28;20196;-61
2023/04/07 10:47:18;;;;;;;15.83;9.73;;;8.60;99.90;;;;;;4910897;29;20737;-62
2023/04/07 10:50:17;;;;;;;20.33;10.00;;;8.60;99.90;;;;;;4910815;29;20309;-62
2023/04/07 10:52:44;;;;;;;16.53;10.13;;;8.60;99.90;;;;;;4959261;28;20211;-62
2023/04/07 10:55:34;;;;;;;19.53;9.90;;;8.60;99.90;;;;;;4989112;28;20842;-62
2023/04/07 10:58:16;;;;;;;15.10;8.07;;;8.50;99.90;;;;;;4989809;28;20266;-61
2023/04/07 11:01:03;;;;;;;17.53;9.10;;;8.50;99.90;;;;;;4987715;28;20890;-62
2023/04/07 11:03:32;;;;;;;14.33;8.43;;;8.50;99.90;;;;;;4988661;28;20271;-62
2023/04/07 11:06:04;;;;;;;14.67;8.20;;;8.50;99.90;;;;;;4987157;28;20197;-62
2023/04/07 11:08:35;;;;;;;18.27;9.77;;;8.50;99.90;;;;;;4990480;28;20200;-62
2023/04/07 11:11:07;;;;;;;12.50;8.07;;;8.60;99.90;;;;;;4988610;28;20322;-62
2023/04/07 11:13:41;;;;;;;15.07;7.70;;;9.00;99.90;;;;;;4986981;28;20203;-62
2023/04/07 11:16:11;;;;;;;13.17;7.43;;;8.80;99.90;;;;;;4991205;28;20199;-62
2023/04/07 11:18:41;;;;;;;19.07;8.00;;;8.80;99.90;;;;;;4989320;28;20220;-62
2023/04/07 11:21:09;;;;;;;18.50;9.27;;;8.90;99.90;;;;;;4987434;28;20192;-61
2023/04/07 11:23:39;;;;;;;14.63;7.87;;;8.90;99.90;;;;;;4989506;28;20867;-61
2023/04/07 11:26:09;;;;;;;16.23;7.83;;;8.90;99.90;;;;;;4983407;28;20204;-61
2023/04/07 11:28:44;;;;;;;17.27;8.20;;;8.90;99.90;;;;;;4987701;28;20199;-62
2023/04/07 11:31:15;;;;;;;11.83;7.47;;;8.90;99.90;;;;;;4989063;28;20227;-62
2023/04/07 11:33:42;;;;;;;11.83;6.77;;;9.00;99.90;;;;;;4990014;28;20224;-62
2023/04/07 11:36:10;;;;;;;13.70;7.90;;;9.10;99.90;;;;;;4987739;28;20191;-61
2023/04/07 11:38:38;;;;;;;11.90;7.00;;;9.20;99.90;;;;;;4987664;28;20264;-61
2023/04/07 11:41:17;;;;;;;8.27;5.90;;;9.20;99.90;;;;;;4987279;28;20197;-61
2023/04/07 11:43:44;;;;;;;11.43;6.87;;;9.10;99.90;;;;;;4984927;28;20266;-62
2023/04/07 11:46:13;;;;;;;13.63;6.27;;;9.10;99.90;;;;;;4988113;28;20676;-61
2023/04/07 11:48:43;;;;;;;10.63;6.90;;;9.00;99.90;;;;;;4988162;28;20745;-60
2023/04/07 11:51:16;;;;;;;10.80;7.03;;;9.00;99.90;;;;;;4989717;28;20296;-62
2023/04/07 11:53:46;;;;;;;11.30;7.33;;;9.00;99.90;;;;;;4986086;28;20274;-62
2023/04/07 11:56:17;;;;;;;11.70;7.57;;;9.00;99.90;;;;;;4987519;28;20258;-62
2023/04/07 11:58:48;;;;;;;12.60;7.20;;;9.10;99.90;;;;;;4989418;28;20284;-62
2023/04/07 12:01:15;;;;;;;14.00;7.30;;;9.20;99.90;;;;;;4988363;28;20557;-62
2023/04/07 12:03:57;;;;;;;11.07;7.37;;;9.30;99.90;;;;;;4986003;28;20616;-61
2023/04/07 12:06:29;;;;;;;15.13;7.90;;;9.40;99.90;;;;;;4985972;28;20295;-61
2023/04/07 12:08:56;;;;;;;15.40;7.43;;;9.50;99.90;;;;;;4989146;28;20245;-62
2023/04/07 12:11:25;;;;;;;28.50;8.53;;;9.50;99.90;;;;;;4985873;28;20220;-61
2023/04/07 12:13:52;;;;;;;15.30;8.10;;;9.50;99.90;;;;;;4989565;28;20276;-61
2023/04/07 12:16:20;;;;;;;13.80;8.00;;;9.50;99.90;;;;;;4989825;28;20208;-62
2023/04/07 12:18:48;;;;;;;18.60;8.03;;;9.60;99.90;;;;;;4985717;28;20197;-61
2023/04/07 12:21:15;;;;;;;16.17;7.17;;;9.60;99.90;;;;;;4987665;28;20194;-61
2023/04/07 12:23:42;;;;;;;14.67;8.40;;;9.60;99.90;;;;;;4988158;28;20205;-64
2023/04/07 12:26:10;;;;;;;14.30;7.97;;;9.60;99.90;;;;;;4986494;28;20279;-62
2023/04/07 12:28:39;;;;;;;16.33;8.33;;;9.70;99.90;;;;;;4988280;28;20602;-61
2023/04/07 12:31:06;;;;;;;14.87;8.90;;;9.70;99.90;;;;;;4988330;28;20524;-61
2023/04/07 12:33:35;;;;;;;11.87;7.50;;;9.70;99.90;;;;;;4988351;28;20204;-61
2023/04/07 12:36:02;;;;;;;18.00;8.40;;;9.70;99.90;;;;;;4988135;28;20302;-61
2023/04/07 12:38:29;;;;;;;12.03;8.13;;;9.70;99.90;;;;;;4986043;28;20267;-61
2023/04/07 12:41:02;;;;;;;17.87;9.87;;;9.70;99.90;;;;;;4987617;28;20205;-61
2023/04/07 12:43:29;;;;;;;21.17;10.17;;;9.70;99.90;;;;;;4989188;28;20196;-63
2023/04/07 12:45:58;;;;;;;16.63;9.60;;;9.70;99.90;;;;;;4986734;28;20205;-62
2023/04/07 12:48:26;;;;;;;14.20;8.20;;;9.60;99.90;;;;;;4989278;28;20197;-61
2023/04/07 12:50:53;;;;;;;12.57;7.43;;;9.60;99.90;;;;;;4988242;28;20235;-61
2023/04/07 12:53:21;;;;;;;16.77;10.30;;;9.60;99.90;;;;;;4985845;28;20196;-62
2023/04/07 12:55:48;;;;;;;20.33;10.53;;;9.50;99.90;;;;;;4986758;28;20228;-62
2023/04/07 12:58:16;;;;;;;21.17;9.93;;;9.40;99.90;;;;;;4989116;28;20210;-62